TimeEST,TemperatureF,Dew PointF,Humidity,Sea Level PressureIn,VisibilityMPH,Wind Direction,Wind SpeedMPH,Gust SpeedMPH,PrecipitationIn,Events,Conditions,WindDirDegrees,DateUTC
12:01 AM,48.2,39.2,71,30.08,-9999.0,NNE,8.1,-,N/A,,Clear,30,2014-02-03 05:01:00
12:21 AM,47.5,39.6,74,30.09,-9999.0,NE,5.8,-,N/A,,Clear,50,2014-02-03 05:21:00
12:41 AM,47.3,40.5,77,30.09,-9999.0,NE,8.1,-,N/A,,Scattered Clouds,40,2014-02-03 05:41:00
1:01 AM,46.9,41.0,80,30.09,-9999.0,NE,4.6,-,N/A,,Scattered Clouds,40,2014-02-03 06:01:00
1:21 AM,46.8,41.2,81,30.08,-9999.0,NE,5.8,-,N/A,,Scattered Clouds,40,2014-02-03 06:21:00
1:41 AM,46.6,41.4,82,30.09,-9999.0,NE,6.9,-,N/A,,Scattered Clouds,40,2014-02-03 06:41:00
2:01 AM,46.4,41.4,83,30.08,-9999.0,NE,6.9,-,N/A,,Mostly Cloudy,40,2014-02-03 07:01:00
2:21 AM,46.4,41.5,83,30.09,-9999.0,NE,5.8,-,N/A,,Overcast,40,2014-02-03 07:21:00
2:41 AM,46.4,41.4,83,30.09,-9999.0,NE,8.1,-,N/A,,Mostly Cloudy,50,2014-02-03 07:41:00
3:01 AM,46.4,41.4,83,30.09,-9999.0,NNE,6.9,-,N/A,,Scattered Clouds,30,2014-02-03 08:01:00
3:21 AM,45.7,41.9,87,30.09,-9999.0,NNE,8.1,-,N/A,,Mostly Cloudy,20,2014-02-03 08:21:00
3:41 AM,45.1,42.3,90,30.11,-9999.0,North,6.9,-,N/A,,Unknown,10,2014-02-03 08:41:00
4:01 AM,44.1,42.8,95,30.08,-9999.0,NE,10.4,-,N/A,,Overcast,50,2014-02-03 09:01:00
4:21 AM,43.7,43.7,100,30.07,-9999.0,ENE,13.8,-,N/A,,Overcast,60,2014-02-03 09:21:00
4:41 AM,43.3,43.3,100,30.07,-9999.0,ENE,13.8,19.6,N/A,,Overcast,70,2014-02-03 09:41:00
5:01 AM,42.8,42.8,100,30.05,-9999.0,ENE,17.3,21.9,N/A,,Overcast,70,2014-02-03 10:01:00
5:21 AM,42.4,42.4,100,30.08,-9999.0,NE,12.7,-,N/A,,Overcast,50,2014-02-03 10:21:00
5:23 AM,42.4,42.4,100,30.08,-9999.0,NE,11.5,-,N/A,,Overcast,50,2014-02-03 10:23:00
5:45 AM,41.0,41.0,100,30.10,10.0,NNE,11.5,-,N/A,,Overcast,30,2014-02-03 10:45:00
5:50 AM,41.0,41.0,100,30.10,7.0,NNE,11.5,20.7,N/A,,Overcast,30,2014-02-03 10:50:00
6:50 AM,41.0,41.0,100,30.10,5.0,ENE,13.8,17.3,N/A,,Overcast,60,2014-02-03 11:50:00
7:50 AM,39.2,39.2,100,30.07,4.0,East,10.4,17.3,N/A,Rain,Rain,80,2014-02-03 12:50:00
8:50 AM,39.2,39.2,100,30.03,3.0,East,17.3,23.0,N/A,Rain,Rain,80,2014-02-03 13:50:00
9:50 AM,39.2,39.2,100,30.03,3.0,NNE,13.8,23.0,N/A,Rain,Rain,30,2014-02-03 14:50:00
10:45 AM,39.2,39.2,100,30.05,3.0,NE,11.5,16.1,N/A,Rain,Rain,40,2014-02-03 15:45:00
11:50 AM,37.4,37.4,100,30.03,5.0,NNE,9.2,-,N/A,Rain,Rain,30,2014-02-03 16:50:00
12:50 PM,37.4,37.4,100,30.05,8.0,NNE,10.4,-,N/A,,Overcast,20,2014-02-03 17:50:00
1:47 PM,37.4,37.4,100,30.07,2.0,NNE,11.5,19.6,N/A,Rain,Rain,20,2014-02-03 18:47:00
2:50 PM,35.6,35.6,100,30.11,4.0,North,-9999.0,-,N/A,Rain-Snow,Light Rain,0,2014-02-03 19:50:00
3:50 PM,37.4,37.4,100,30.13,5.0,NNE,11.5,-,N/A,,Overcast,20,2014-02-03 20:50:00
4:50 PM,37.4,37.4,100,30.18,5.0,North,8.1,-,N/A,,Overcast,10,2014-02-03 21:50:00
5:50 PM,37.4,37.4,100,30.23,6.0,North,10.4,-,N/A,,Overcast,10,2014-02-03 22:50:00
6:50 PM,37.4,37.4,100,30.26,7.0,North,9.2,-,N/A,,Overcast,10,2014-02-03 23:50:00
7:50 PM,37.4,37.4,100,30.27,10.0,North,8.1,-,N/A,,Overcast,10,2014-02-04 00:50:00
8:50 PM,35.6,35.6,100,30.32,10.0,North,6.9,-,N/A,,Overcast,10,2014-02-04 01:50:00
9:43 PM,36.1,36.1,100,30.34,-9999.0,North,5.8,-,N/A,,Unknown,360,2014-02-04 02:43:00
10:03 PM,36.1,36.1,100,30.34,-9999.0,NNE,6.9,-,N/A,,Unknown,20,2014-02-04 03:03:00
10:23 PM,35.6,35.6,100,30.34,-9999.0,North,4.6,-,N/A,,Unknown,10,2014-02-04 03:23:00
10:43 PM,35.2,35.2,100,30.34,-9999.0,NNE,5.8,-,N/A,,Overcast,20,2014-02-04 03:43:00
11:03 PM,35.2,35.2,100,30.34,-9999.0,North,4.6,-,N/A,,Overcast,10,2014-02-04 04:03:00
11:23 PM,35.6,35.6,100,30.35,-9999.0,NNE,6.9,-,N/A,,Overcast,20,2014-02-04 04:23:00
11:43 PM,35.6,35.6,100,30.36,-9999.0,North,4.6,-,N/A,,Overcast,10,2014-02-04 04:43:00